sensor_id;sensor_type;location;lat;lon;timestamp;pressure;altitude;pressure_sealevel;temperature;humidity
73558;BME280;61829;53.286;10.434;2022-07-06T00:01:31;101921.19;;;15.13;65.61
73558;BME280;61829;53.286;10.434;2022-07-06T00:03:56;101923.91;;;15.13;64.80
73558;BME280;61829;53.286;10.434;2022-07-06T00:06:22;101923.25;;;15.11;65.47
73558;BME280;61829;53.286;10.434;2022-07-06T00:08:48;101931.78;;;15.08;65.47
73558;BME280;61829;53.286;10.434;2022-07-06T00:11:14;101933.38;;;15.02;65.81
73558;BME280;61829;53.286;10.434;2022-07-06T00:13:41;101924.59;;;15.00;65.58
73558;BME280;61829;53.286;10.434;2022-07-06T00:16:07;101917.00;;;14.96;65.00
73558;BME280;61829;53.286;10.434;2022-07-06T00:18:33;101924.84;;;14.91;66.58
73558;BME280;61829;53.286;10.434;2022-07-06T00:20:59;101924.38;;;14.87;66.40
73558;BME280;61829;53.286;10.434;2022-07-06T00:23:24;101923.56;;;14.87;65.46
73558;BME280;61829;53.286;10.434;2022-07-06T00:25:50;101933.56;;;14.86;65.05
73558;BME280;61829;53.286;10.434;2022-07-06T00:28:16;101928.47;;;14.83;65.56
73558;BME280;61829;53.286;10.434;2022-07-06T00:30:42;101924.47;;;14.79;65.94
73558;BME280;61829;53.286;10.434;2022-07-06T00:33:08;101930.06;;;14.77;65.27
73558;BME280;61829;53.286;10.434;2022-07-06T00:35:34;101926.22;;;14.72;66.05
73558;BME280;61829;53.286;10.434;2022-07-06T00:37:59;101930.19;;;14.69;66.32
73558;BME280;61829;53.286;10.434;2022-07-06T00:40:29;101924.25;;;14.66;66.40
73558;BME280;61829;53.286;10.434;2022-07-06T00:42:56;101927.19;;;14.64;66.65
73558;BME280;61829;53.286;10.434;2022-07-06T00:45:22;101927.53;;;14.61;66.60
73558;BME280;61829;53.286;10.434;2022-07-06T00:47:48;101929.75;;;14.57;67.89
73558;BME280;61829;53.286;10.434;2022-07-06T00:50:16;101920.78;;;14.57;67.73
73558;BME280;61829;53.286;10.434;2022-07-06T00:52:53;101922.84;;;14.55;68.39
73558;BME280;61829;53.286;10.434;2022-07-06T00:55:25;101918.66;;;14.52;67.90
73558;BME280;61829;53.286;10.434;2022-07-06T00:57:51;101915.06;;;14.52;68.51
73558;BME280;61829;53.286;10.434;2022-07-06T01:00:19;101919.47;;;14.53;68.69
73558;BME280;61829;53.286;10.434;2022-07-06T01:02:46;101927.63;;;14.53;68.39
73558;BME280;61829;53.286;10.434;2022-07-06T01:05:14;101919.47;;;14.53;68.80
73558;BME280;61829;53.286;10.434;2022-07-06T01:07:44;101916.06;;;14.51;68.77
73558;BME280;61829;53.286;10.434;2022-07-06T01:10:12;101917.59;;;14.53;67.56
73558;BME280;61829;53.286;10.434;2022-07-06T01:12:40;101915.56;;;14.55;68.04
73558;BME280;61829;53.286;10.434;2022-07-06T01:15:11;101917.41;;;14.55;68.24
73558;BME280;61829;53.286;10.434;2022-07-06T01:17:39;101921.81;;;14.56;68.45
73558;BME280;61829;53.286;10.434;2022-07-06T01:22:41;101915.19;;;14.58;68.72
73558;BME280;61829;53.286;10.434;2022-07-06T01:25:08;101912.28;;;14.60;67.84
73558;BME280;61829;53.286;10.434;2022-07-06T01:27:34;101909.56;;;14.60;68.99
73558;BME280;61829;53.286;10.434;2022-07-06T01:30:05;101915.00;;;14.60;67.58
73558;BME280;61829;53.286;10.434;2022-07-06T01:32:31;101912.09;;;14.62;68.39
73558;BME280;61829;53.286;10.434;2022-07-06T01:34:57;101910.22;;;14.62;67.94
73558;BME280;61829;53.286;10.434;2022-07-06T01:37:23;101910.22;;;14.62;68.22
73558;BME280;61829;53.286;10.434;2022-07-06T01:39:49;101907.53;;;14.62;67.81
73558;BME280;61829;53.286;10.434;2022-07-06T01:42:14;101908.56;;;14.61;68.46
73558;BME280;61829;53.286;10.434;2022-07-06T01:44:58;101900.78;;;14.58;68.62
73558;BME280;61829;53.286;10.434;2022-07-06T01:47:24;101907.06;;;14.58;69.06
73558;BME280;61829;53.286;10.434;2022-07-06T01:49:50;101901.63;;;14.58;68.40
73558;BME280;61829;53.286;10.434;2022-07-06T01:52:16;101904.34;;;14.58;69.02
73558;BME280;61829;53.286;10.434;2022-07-06T01:54:42;101904.13;;;14.60;69.16
73558;BME280;61829;53.286;10.434;2022-07-06T01:57:08;101898.53;;;14.62;68.59
73558;BME280;61829;53.286;10.434;2022-07-06T01:59:33;101902.09;;;14.62;68.25
73558;BME280;61829;53.286;10.434;2022-07-06T02:01:59;101900.41;;;14.61;69.01
73558;BME280;61829;53.286;10.434;2022-07-06T02:04:25;101904.81;;;14.62;69.08
73558;BME280;61829;53.286;10.434;2022-07-06T02:06:50;101909.41;;;14.62;69.21
73558;BME280;61829;53.286;10.434;2022-07-06T02:09:16;101896.50;;;14.64;67.99
73558;BME280;61829;53.286;10.434;2022-07-06T02:11:43;101904.97;;;14.60;69.02
73558;BME280;61829;53.286;10.434;2022-07-06T02:14:08;101903.97;;;14.62;69.17
73558;BME280;61829;53.286;10.434;2022-07-06T02:16:35;101897.72;;;14.61;68.50
73558;BME280;61829;53.286;10.434;2022-07-06T02:19:05;101904.81;;;14.62;68.71
73558;BME280;61829;53.286;10.434;2022-07-06T02:21:31;101910.22;;;14.62;68.75
73558;BME280;61829;53.286;10.434;2022-07-06T02:23:57;101909.03;;;14.65;68.23
73558;BME280;61829;53.286;10.434;2022-07-06T02:26:23;101910.41;;;14.60;68.90
73558;BME280;61829;53.286;10.434;2022-07-06T02:28:48;101907.88;;;14.59;68.63
73558;BME280;61829;53.286;10.434;2022-07-06T02:31:14;101911.44;;;14.59;69.61
73558;BME280;61829;53.286;10.434;2022-07-06T02:33:40;101908.44;;;14.54;69.08
73558;BME280;61829;53.286;10.434;2022-07-06T02:36:06;101911.81;;;14.56;69.39
73558;BME280;61829;53.286;10.434;2022-07-06T02:38:32;101910.78;;;14.57;68.81
73558;BME280;61829;53.286;10.434;2022-07-06T02:40:58;101901.78;;;14.57;69.24
73558;BME280;61829;53.286;10.434;2022-07-06T02:43:24;101908.94;;;14.58;69.26
73558;BME280;61829;53.286;10.434;2022-07-06T02:45:50;101904.50;;;14.57;68.87
73558;BME280;61829;53.286;10.434;2022-07-06T02:48:16;101910.13;;;14.55;68.86
73558;BME280;61829;53.286;10.434;2022-07-06T02:50:43;101904.72;;;14.55;68.64
73558;BME280;61829;53.286;10.434;2022-07-06T02:53:08;101899.09;;;14.57;69.66
73558;BME280;61829;53.286;10.434;2022-07-06T02:55:37;101899.47;;;14.54;69.92
73558;BME280;61829;53.286;10.434;2022-07-06T02:58:02;101906.75;;;14.53;69.42
73558;BME280;61829;53.286;10.434;2022-07-06T03:00:28;101898.63;;;14.53;70.09
73558;BME280;61829;53.286;10.434;2022-07-06T03:02:54;101906.75;;;14.53;69.48
73558;BME280;61829;53.286;10.434;2022-07-06T03:05:21;101905.72;;;14.54;69.76
73558;BME280;61829;53.286;10.434;2022-07-06T03:07:47;101904.88;;;14.54;69.80
73558;BME280;61829;53.286;10.434;2022-07-06T03:10:13;101914.69;;;14.55;69.96
73558;BME280;61829;53.286;10.434;2022-07-06T03:12:38;101910.97;;;14.56;68.39
73558;BME280;61829;53.286;10.434;2022-07-06T03:15:04;101915.38;;;14.57;68.99
73558;BME280;61829;53.286;10.434;2022-07-06T03:17:30;101914.34;;;14.58;68.68
73558;BME280;61829;53.286;10.434;2022-07-06T03:19:56;101915.38;;;14.57;69.59
73558;BME280;61829;53.286;10.434;2022-07-06T03:22:22;101919.78;;;14.58;69.14
73558;BME280;61829;53.286;10.434;2022-07-06T03:24:48;101923.31;;;14.58;68.92
73558;BME280;61829;53.286;10.434;2022-07-06T03:27:14;101916.03;;;14.59;69.08
73558;BME280;61829;53.286;10.434;2022-07-06T03:29:40;101916.69;;;14.61;68.93
73558;BME280;61829;53.286;10.434;2022-07-06T03:32:06;101918.53;;;14.60;69.86
73558;BME280;61829;53.286;10.434;2022-07-06T03:34:32;101931.94;;;14.62;68.90
73558;BME280;61829;53.286;10.434;2022-07-06T03:36:58;101926.50;;;14.62;70.13
73558;BME280;61829;53.286;10.434;2022-07-06T03:39:25;101929.22;;;14.62;69.44
73558;BME280;61829;53.286;10.434;2022-07-06T03:41:54;101923.63;;;14.64;70.15
73558;BME280;61829;53.286;10.434;2022-07-06T03:44:20;101920.25;;;14.62;70.14
73558;BME280;61829;53.286;10.434;2022-07-06T03:46:47;101926.03;;;14.58;70.03
73558;BME280;61829;53.286;10.434;2022-07-06T03:49:12;101930.63;;;14.58;70.18
73558;BME280;61829;53.286;10.434;2022-07-06T03:51:38;101930.25;;;14.61;69.73
73558;BME280;61829;53.286;10.434;2022-07-06T03:54:05;101933.59;;;14.63;69.82
73558;BME280;61829;53.286;10.434;2022-07-06T03:56:31;101932.59;;;14.64;69.84
73558;BME280;61829;53.286;10.434;2022-07-06T03:59:02;101931.75;;;14.64;69.88
73558;BME280;61829;53.286;10.434;2022-07-06T04:01:28;101929.69;;;14.66;70.18
73558;BME280;61829;53.286;10.434;2022-07-06T04:03:55;101934.94;;;14.67;70.00
73558;BME280;61829;53.286;10.434;2022-07-06T04:06:21;101934.56;;;14.70;69.73
73558;BME280;61829;53.286;10.434;2022-07-06T04:08:48;101929.81;;;14.72;69.79
73558;BME280;61829;53.286;10.434;2022-07-06T04:11:13;101929.81;;;14.72;69.86
73558;BME280;61829;53.286;10.434;2022-07-06T04:13:39;101932.53;;;14.72;70.64
73558;BME280;61829;53.286;10.434;2022-07-06T04:16:06;101926.06;;;14.73;70.00
73558;BME280;61829;53.286;10.434;2022-07-06T04:18:32;101920.09;;;14.78;69.41
73558;BME280;61829;53.286;10.434;2022-07-06T04:20:58;101922.59;;;14.79;69.57
73558;BME280;61829;53.286;10.434;2022-07-06T04:23:24;101920.53;;;14.81;69.74
73558;BME280;61829;53.286;10.434;2022-07-06T04:25:50;101912.19;;;14.83;69.42
73558;BME280;61829;53.286;10.434;2022-07-06T04:28:19;101918.13;;;14.87;69.17
73558;BME280;61829;53.286;10.434;2022-07-06T04:30:45;101916.25;;;14.87;69.25
73558;BME280;61829;53.286;10.434;2022-07-06T04:33:10;101914.56;;;14.86;69.08
73558;BME280;61829;53.286;10.434;2022-07-06T04:35:36;101917.75;;;14.90;69.54
73558;BME280;61829;53.286;10.434;2022-07-06T04:38:02;101916.53;;;14.92;69.22
73558;BME280;61829;53.286;10.434;2022-07-06T04:40:28;101919.03;;;14.94;68.63
73558;BME280;61829;53.286;10.434;2022-07-06T04:42:54;101919.03;;;14.94;68.46
73558;BME280;61829;53.286;10.434;2022-07-06T04:45:19;101925.81;;;14.98;68.98
73558;BME280;61829;53.286;10.434;2022-07-06T04:47:45;101931.88;;;15.00;69.03
73558;BME280;61829;53.286;10.434;2022-07-06T04:50:11;101926.72;;;15.05;68.70
73558;BME280;61829;53.286;10.434;2022-07-06T04:52:37;101930.09;;;15.07;68.81
73558;BME280;61829;53.286;10.434;2022-07-06T04:55:04;101928.06;;;15.09;69.00
73558;BME280;61829;53.286;10.434;2022-07-06T04:57:31;101935.16;;;15.10;68.32
73558;BME280;61829;53.286;10.434;2022-07-06T04:59:57;101932.44;;;15.10;68.89
73558;BME280;61829;53.286;10.434;2022-07-06T05:02:23;101933.38;;;15.17;68.83
73558;BME280;61829;53.286;10.434;2022-07-06T05:04:49;101931.97;;;15.21;68.89
73558;BME280;61829;53.286;10.434;2022-07-06T05:07:15;101943.50;;;15.23;69.03
73558;BME280;61829;53.286;10.434;2022-07-06T05:09:41;101945.44;;;15.30;68.48
73558;BME280;61829;53.286;10.434;2022-07-06T05:12:08;101936.91;;;15.33;68.64
73558;BME280;61829;53.286;10.434;2022-07-06T05:14:34;101945.06;;;15.33;68.57
73558;BME280;61829;53.286;10.434;2022-07-06T05:17:00;101945.91;;;15.33;67.94
73558;BME280;61829;53.286;10.434;2022-07-06T05:19:25;101937.38;;;15.36;67.69
73558;BME280;61829;53.286;10.434;2022-07-06T05:21:51;101940.38;;;15.41;67.74
73558;BME280;61829;53.286;10.434;2022-07-06T05:24:17;101943.09;;;15.41;67.85
73558;BME280;61829;53.286;10.434;2022-07-06T05:26:44;101937.47;;;15.43;67.35
73558;BME280;61829;53.286;10.434;2022-07-06T05:29:10;101942.72;;;15.44;68.16
73558;BME280;61829;53.286;10.434;2022-07-06T05:31:40;101940.44;;;15.48;68.61
73558;BME280;61829;53.286;10.434;2022-07-06T05:34:06;101936.34;;;15.52;68.95
73558;BME280;61829;53.286;10.434;2022-07-06T05:36:31;101947.47;;;15.57;68.30
73558;BME280;61829;53.286;10.434;2022-07-06T05:38:57;101941.28;;;15.63;67.60
73558;BME280;61829;53.286;10.434;2022-07-06T05:41:23;101942.94;;;15.64;68.10
73558;BME280;61829;53.286;10.434;2022-07-06T05:43:48;101947.63;;;15.70;66.96
73558;BME280;61829;53.286;10.434;2022-07-06T05:46:14;101942.47;;;15.76;67.12
73558;BME280;61829;53.286;10.434;2022-07-06T05:48:40;101947.97;;;15.82;66.76
73558;BME280;61829;53.286;10.434;2022-07-06T05:51:24;101951.44;;;15.91;66.33
73558;BME280;61829;53.286;10.434;2022-07-06T05:53:50;101950.00;;;15.95;65.28
73558;BME280;61829;53.286;10.434;2022-07-06T05:56:15;101942.97;;;16.01;65.19
73558;BME280;61829;53.286;10.434;2022-07-06T05:58:41;101947.19;;;16.03;65.02
73558;BME280;61829;53.286;10.434;2022-07-06T06:01:07;101940.50;;;16.06;64.48
73558;BME280;61829;53.286;10.434;2022-07-06T06:03:34;101934.06;;;16.13;64.59
73558;BME280;61829;53.286;10.434;2022-07-06T06:06:00;101939.38;;;16.22;63.96
73558;BME280;61829;53.286;10.434;2022-07-06T06:08:25;101936.09;;;16.26;64.41
73558;BME280;61829;53.286;10.434;2022-07-06T06:10:52;101939.47;;;16.28;63.61
73558;BME280;61829;53.286;10.434;2022-07-06T06:13:18;101937.38;;;16.30;64.39
73558;BME280;61829;53.286;10.434;2022-07-06T06:15:44;101936.63;;;16.36;64.48
73558;BME280;61829;53.286;10.434;2022-07-06T06:18:10;101939.38;;;16.43;63.88
73558;BME280;61829;53.286;10.434;2022-07-06T06:20:36;101945.09;;;16.48;62.74
73558;BME280;61829;53.286;10.434;2022-07-06T06:23:02;101946.63;;;16.57;63.39
73558;BME280;61829;53.286;10.434;2022-07-06T06:25:33;101959.25;;;16.65;62.28
73558;BME280;61829;53.286;10.434;2022-07-06T06:28:00;101951.09;;;16.65;62.59
73558;BME280;61829;53.286;10.434;2022-07-06T06:30:26;101955.88;;;16.63;61.92
73558;BME280;61829;53.286;10.434;2022-07-06T06:33:14;101955.91;;;16.70;61.63
73558;BME280;61829;53.286;10.434;2022-07-06T06:35:49;101956.56;;;16.72;61.43
73558;BME280;61829;53.286;10.434;2022-07-06T06:38:16;101949.69;;;16.76;61.25
73558;BME280;61829;53.286;10.434;2022-07-06T06:40:42;101958.34;;;16.79;61.67
73558;BME280;61829;53.286;10.434;2022-07-06T06:43:08;101954.56;;;16.80;61.37
73558;BME280;61829;53.286;10.434;2022-07-06T06:45:35;101956.88;;;16.83;60.72
73558;BME280;61829;53.286;10.434;2022-07-06T06:48:01;101959.28;;;16.93;60.80
73558;BME280;61829;53.286;10.434;2022-07-06T06:50:27;101959.75;;;17.03;60.08
73558;BME280;61829;53.286;10.434;2022-07-06T06:52:53;101956.06;;;17.18;59.73
73558;BME280;61829;53.286;10.434;2022-07-06T06:55:19;101964.31;;;17.31;58.67
73558;BME280;61829;53.286;10.434;2022-07-06T06:57:46;101969.34;;;17.34;58.23
73558;BME280;61829;53.286;10.434;2022-07-06T07:00:12;101970.44;;;17.46;58.56
73558;BME280;61829;53.286;10.434;2022-07-06T07:02:39;101967.59;;;17.61;56.95
73558;BME280;61829;53.286;10.434;2022-07-06T07:05:05;101968.03;;;17.65;56.64
73558;BME280;61829;53.286;10.434;2022-07-06T07:07:31;101964.06;;;17.67;57.51
73558;BME280;61829;53.286;10.434;2022-07-06T07:09:58;101970.56;;;17.73;58.47
73558;BME280;61829;53.286;10.434;2022-07-06T07:12:24;101975.47;;;17.84;57.34
73558;BME280;61829;53.286;10.434;2022-07-06T07:14:49;101977.59;;;17.95;57.22
73558;BME280;61829;53.286;10.434;2022-07-06T07:17:16;101968.81;;;18.07;57.86
73558;BME280;61829;53.286;10.434;2022-07-06T07:19:42;101972.59;;;18.12;55.32
73558;BME280;61829;53.286;10.434;2022-07-06T07:22:08;101989.38;;;18.09;56.23
73558;BME280;61829;53.286;10.434;2022-07-06T07:24:34;101991.66;;;18.06;57.98
73558;BME280;61829;53.286;10.434;2022-07-06T07:27:00;101998.47;;;17.75;62.21
73558;BME280;61829;53.286;10.434;2022-07-06T07:29:25;101989.94;;;17.43;61.96
73558;BME280;61829;53.286;10.434;2022-07-06T07:31:51;101991.97;;;17.35;65.37
73558;BME280;61829;53.286;10.434;2022-07-06T07:34:17;101989.94;;;17.43;65.02
73558;BME280;61829;53.286;10.434;2022-07-06T07:36:43;101984.28;;;17.45;64.65
73558;BME280;61829;53.286;10.434;2022-07-06T07:39:09;101995.38;;;17.43;64.37
73558;BME280;61829;53.286;10.434;2022-07-06T07:41:34;101987.28;;;17.57;64.41
73558;BME280;61829;53.286;10.434;2022-07-06T07:44:00;101986.47;;;17.63;62.49
73558;BME280;61829;53.286;10.434;2022-07-06T07:46:26;101990.25;;;17.62;62.69
73558;BME280;61829;53.286;10.434;2022-07-06T07:48:53;101990.06;;;17.70;64.53
73558;BME280;61829;53.286;10.434;2022-07-06T07:51:18;101995.31;;;17.71;61.11
73558;BME280;61829;53.286;10.434;2022-07-06T07:53:45;101994.47;;;17.78;60.06
73558;BME280;61829;53.286;10.434;2022-07-06T07:56:11;101996.00;;;17.80;62.29
73558;BME280;61829;53.286;10.434;2022-07-06T07:58:38;101997.50;;;17.89;60.11
73558;BME280;61829;53.286;10.434;2022-07-06T08:01:04;101998.59;;;18.08;58.25
73558;BME280;61829;53.286;10.434;2022-07-06T08:03:30;101994.22;;;18.21;57.45
73558;BME280;61829;53.286;10.434;2022-07-06T08:05:57;101993.81;;;18.37;58.37
73558;BME280;61829;53.286;10.434;2022-07-06T08:08:27;101993.84;;;18.63;57.33
73558;BME280;61829;53.286;10.434;2022-07-06T08:10:53;101988.44;;;18.77;56.95
73558;BME280;61829;53.286;10.434;2022-07-06T08:13:19;101983.38;;;18.87;56.65
73558;BME280;61829;53.286;10.434;2022-07-06T08:15:45;101983.09;;;19.15;56.01
73558;BME280;61829;53.286;10.434;2022-07-06T08:18:11;101984.56;;;19.31;54.49
73558;BME280;61829;53.286;10.434;2022-07-06T08:20:37;101972.72;;;19.44;53.53
73558;BME280;61829;53.286;10.434;2022-07-06T08:23:04;101980.00;;;19.77;52.67
73558;BME280;61829;53.286;10.434;2022-07-06T08:25:30;101967.84;;;20.04;51.36
73558;BME280;61829;53.286;10.434;2022-07-06T08:27:56;101974.28;;;20.16;50.54
73558;BME280;61829;53.286;10.434;2022-07-06T08:30:22;101977.22;;;20.15;50.12
73558;BME280;61829;53.286;10.434;2022-07-06T08:32:50;101966.97;;;20.04;51.70
73558;BME280;61829;53.286;10.434;2022-07-06T08:35:16;101976.91;;;19.98;51.59
73558;BME280;61829;53.286;10.434;2022-07-06T08:37:45;101972.75;;;19.89;50.38
73558;BME280;61829;53.286;10.434;2022-07-06T08:40:11;101975.31;;;19.84;51.11
73558;BME280;61829;53.286;10.434;2022-07-06T08:42:36;101985.69;;;19.68;50.62
73558;BME280;61829;53.286;10.434;2022-07-06T08:45:06;101976.72;;;19.41;52.74
73558;BME280;61829;53.286;10.434;2022-07-06T08:47:35;101980.97;;;19.24;54.94
73558;BME280;61829;53.286;10.434;2022-07-06T08:50:03;101988.16;;;19.18;56.37
73558;BME280;61829;53.286;10.434;2022-07-06T08:52:29;101982.09;;;18.90;57.71
73558;BME280;61829;53.286;10.434;2022-07-06T08:54:55;101982.50;;;18.73;57.41
73558;BME280;61829;53.286;10.434;2022-07-06T08:57:21;101988.59;;;18.62;58.28
73558;BME280;61829;53.286;10.434;2022-07-06T08:59:48;101993.19;;;18.28;58.71
73558;BME280;61829;53.286;10.434;2022-07-06T09:02:14;101992.53;;;18.20;59.29
73558;BME280;61829;53.286;10.434;2022-07-06T09:04:42;102002.19;;;18.09;57.49
73558;BME280;61829;53.286;10.434;2022-07-06T09:07:09;102004.22;;;18.00;59.75
73558;BME280;61829;53.286;10.434;2022-07-06T09:09:37;102003.81;;;17.97;59.63
73558;BME280;61829;53.286;10.434;2022-07-06T09:12:03;102004.22;;;18.00;60.50
73558;BME280;61829;53.286;10.434;2022-07-06T09:14:30;102002.56;;;17.92;58.79
73558;BME280;61829;53.286;10.434;2022-07-06T09:17:04;102006.09;;;17.86;60.25
73558;BME280;61829;53.286;10.434;2022-07-06T09:19:33;102007.91;;;17.72;60.18
73558;BME280;61829;53.286;10.434;2022-07-06T09:22:00;102015.53;;;17.49;62.50
73558;BME280;61829;53.286;10.434;2022-07-06T09:24:27;102010.47;;;17.39;61.73
73558;BME280;61829;53.286;10.434;2022-07-06T09:26:57;102013.66;;;17.15;64.22
73558;BME280;61829;53.286;10.434;2022-07-06T09:29:30;102024.81;;;17.20;64.51
73558;BME280;61829;53.286;10.434;2022-07-06T09:32:02;102043.47;;;17.23;63.33
73558;BME280;61829;53.286;10.434;2022-07-06T09:34:45;102052.50;;;16.74;65.79
73558;BME280;61829;53.286;10.434;2022-07-06T09:37:13;102054.63;;;16.57;66.09
73558;BME280;61829;53.286;10.434;2022-07-06T09:39:40;102062.75;;;16.50;67.37
73558;BME280;61829;53.286;10.434;2022-07-06T09:42:07;102069.66;;;16.31;67.77
73558;BME280;61829;53.286;10.434;2022-07-06T09:44:40;102065.22;;;16.09;66.09
73558;BME280;61829;53.286;10.434;2022-07-06T09:47:11;102060.75;;;15.86;66.24
73558;BME280;61829;53.286;10.434;2022-07-06T09:49:38;102065.63;;;15.76;65.94
73558;BME280;61829;53.286;10.434;2022-07-06T09:52:06;102056.81;;;15.89;65.01
73558;BME280;61829;53.286;10.434;2022-07-06T09:54:36;102053.63;;;15.85;65.28
73558;BME280;61829;53.286;10.434;2022-07-06T09:57:05;102054.75;;;15.91;63.33
73558;BME280;61829;53.286;10.434;2022-07-06T09:59:33;102056.50;;;15.99;62.70
73558;BME280;61829;53.286;10.434;2022-07-06T10:02:07;102058.03;;;16.23;61.77
73558;BME280;61829;53.286;10.434;2022-07-06T10:04:34;102040.44;;;16.40;59.93
73558;BME280;61829;53.286;10.434;2022-07-06T10:07:00;102044.72;;;16.49;58.86
73558;BME280;61829;53.286;10.434;2022-07-06T10:09:28;102045.72;;;16.70;57.77
73558;BME280;61829;53.286;10.434;2022-07-06T10:11:59;102039.78;;;16.81;57.16
73558;BME280;61829;53.286;10.434;2022-07-06T10:14:29;102038.81;;;16.89;56.72
73558;BME280;61829;53.286;10.434;2022-07-06T10:16:59;102039.13;;;17.00;56.30
73558;BME280;61829;53.286;10.434;2022-07-06T10:19:26;102040.06;;;17.14;56.55
73558;BME280;61829;53.286;10.434;2022-07-06T10:21:53;102042.63;;;17.22;57.74
73558;BME280;61829;53.286;10.434;2022-07-06T10:24:20;102038.91;;;17.30;57.26
73558;BME280;61829;53.286;10.434;2022-07-06T10:26:47;102042.50;;;17.37;58.13
73558;BME280;61829;53.286;10.434;2022-07-06T10:29:13;102037.16;;;17.50;56.97
73558;BME280;61829;53.286;10.434;2022-07-06T10:31:43;102031.94;;;17.56;57.28
73558;BME280;61829;53.286;10.434;2022-07-06T10:34:12;102029.66;;;17.66;56.85
73558;BME280;61829;53.286;10.434;2022-07-06T10:36:41;102035.59;;;17.76;56.93
73558;BME280;61829;53.286;10.434;2022-07-06T10:39:08;102024.44;;;17.71;56.27
73558;BME280;61829;53.286;10.434;2022-07-06T10:41:54;102024.69;;;17.76;56.50
73558;BME280;61829;53.286;10.434;2022-07-06T10:44:24;102024.69;;;17.76;56.95
73558;BME280;61829;53.286;10.434;2022-07-06T10:49:18;102024.13;;;17.81;56.78
73558;BME280;61829;53.286;10.434;2022-07-06T10:51:44;102029.59;;;17.87;55.89
73558;BME280;61829;53.286;10.434;2022-07-06T10:54:10;102031.56;;;18.07;54.73
73558;BME280;61829;53.286;10.434;2022-07-06T10:56:38;102032.22;;;18.15;55.70
73558;BME280;61829;53.286;10.434;2022-07-06T10:59:15;102028.66;;;18.28;54.51
73558;BME280;61829;53.286;10.434;2022-07-06T11:02:19;102019.44;;;18.36;53.51
73558;BME280;61829;53.286;10.434;2022-07-06T11:04:48;102019.66;;;18.41;55.92
73558;BME280;61829;53.286;10.434;2022-07-06T11:07:18;102023.22;;;18.42;54.66
73558;BME280;61829;53.286;10.434;2022-07-06T11:09:55;102019.69;;;18.54;52.15
73558;BME280;61829;53.286;10.434;2022-07-06T11:12:21;102016.53;;;18.71;51.94
73558;BME280;61829;53.286;10.434;2022-07-06T11:14:48;102018.25;;;18.78;50.50
73558;BME280;61829;53.286;10.434;2022-07-06T11:17:16;102014.88;;;18.96;50.41
73558;BME280;61829;53.286;10.434;2022-07-06T11:20:09;102020.72;;;19.13;50.71
73558;BME280;61829;53.286;10.434;2022-07-06T11:22:38;102013.16;;;19.28;48.64
73558;BME280;61829;53.286;10.434;2022-07-06T11:25:05;102012.84;;;19.50;49.44
73558;BME280;61829;53.286;10.434;2022-07-06T11:27:34;102009.03;;;19.64;48.15
73558;BME280;61829;53.286;10.434;2022-07-06T11:30:03;102006.50;;;19.76;48.00
73558;BME280;61829;53.286;10.434;2022-07-06T11:32:35;101999.50;;;19.87;48.05
73558;BME280;61829;53.286;10.434;2022-07-06T11:35:04;102005.91;;;20.06;47.45
73558;BME280;61829;53.286;10.434;2022-07-06T11:37:34;102001.84;;;20.15;46.54
73558;BME280;61829;53.286;10.434;2022-07-06T11:40:05;102006.69;;;20.19;47.29
73558;BME280;61829;53.286;10.434;2022-07-06T11:42:32;102003.38;;;20.11;47.99
73558;BME280;61829;53.286;10.434;2022-07-06T11:44:58;102002.06;;;19.82;48.57
73558;BME280;61829;53.286;10.434;2022-07-06T11:47:30;102004.41;;;19.71;47.93
73558;BME280;61829;53.286;10.434;2022-07-06T11:49:57;102008.41;;;19.69;48.23
73558;BME280;61829;53.286;10.434;2022-07-06T11:52:24;102005.09;;;19.47;49.80
73558;BME280;61829;53.286;10.434;2022-07-06T11:54:57;102003.47;;;19.39;49.80
73558;BME280;61829;53.286;10.434;2022-07-06T11:57:23;102006.16;;;19.46;49.10
73558;BME280;61829;53.286;10.434;2022-07-06T11:59:49;102002.78;;;19.50;48.91
73558;BME280;61829;53.286;10.434;2022-07-06T12:02:17;101991.41;;;19.47;49.22
73558;BME280;61829;53.286;10.434;2022-07-06T12:04:45;101999.19;;;19.50;50.16
73558;BME280;61829;53.286;10.434;2022-07-06T12:07:15;101997.97;;;19.33;51.61
73558;BME280;61829;53.286;10.434;2022-07-06T12:09:43;101983.31;;;19.20;52.52
73558;BME280;61829;53.286;10.434;2022-07-06T12:12:10;101990.66;;;19.13;51.59
73558;BME280;61829;53.286;10.434;2022-07-06T12:14:39;101983.97;;;19.09;51.64
73558;BME280;61829;53.286;10.434;2022-07-06T12:17:12;101984.81;;;19.10;52.88
73558;BME280;61829;53.286;10.434;2022-07-06T12:19:40;101982.50;;;19.06;52.66
73558;BME280;61829;53.286;10.434;2022-07-06T12:22:07;101990.47;;;19.15;52.73
73558;BME280;61829;53.286;10.434;2022-07-06T12:24:34;101993.81;;;19.23;54.47
73558;BME280;61829;53.286;10.434;2022-07-06T12:27:13;101990.91;;;18.98;53.39
73558;BME280;61829;53.286;10.434;2022-07-06T12:29:40;101980.84;;;18.92;56.27
73558;BME280;61829;53.286;10.434;2022-07-06T12:32:06;101977.28;;;18.78;55.71
73558;BME280;61829;53.286;10.434;2022-07-06T12:34:34;101973.09;;;18.82;55.33
73558;BME280;61829;53.286;10.434;2022-07-06T12:37:09;101962.38;;;18.74;54.38
73558;BME280;61829;53.286;10.434;2022-07-06T12:39:45;101959.19;;;18.71;54.56
73558;BME280;61829;53.286;10.434;2022-07-06T12:42:14;101964.44;;;18.92;54.91
73558;BME280;61829;53.286;10.434;2022-07-06T12:44:48;101965.63;;;19.29;54.49
73558;BME280;61829;53.286;10.434;2022-07-06T12:47:18;101970.81;;;19.44;54.38